sensor_id;sensor_type;location;lat;lon;timestamp;temperature;humidity
20380;DHT22;10349;48.666;8.948;2022-07-22T00:00:59;18.50;99.90
20380;DHT22;10349;48.666;8.948;2022-07-22T00:03:24;18.50;99.90
20380;DHT22;10349;48.666;8.948;2022-07-22T00:05:50;18.50;99.90
20380;DHT22;10349;48.666;8.948;2022-07-22T00:08:15;18.50;99.90
20380;DHT22;10349;48.666;8.948;2022-07-22T00:10:41;18.50;99.90
20380;DHT22;10349;48.666;8.948;2022-07-22T00:13:07;18.50;99.90
20380;DHT22;10349;48.666;8.948;2022-07-22T00:15:33;18.50;99.90
20380;DHT22;10349;48.666;8.948;2022-07-22T00:17:59;18.40;99.90
20380;DHT22;10349;48.666;8.948;2022-07-22T00:20:24;18.20;99.90
20380;DHT22;10349;48.666;8.948;2022-07-22T00:22:50;18.00;99.90
20380;DHT22;10349;48.666;8.948;2022-07-22T00:25:16;17.90;99.90
20380;DHT22;10349;48.666;8.948;2022-07-22T00:27:41;17.80;99.90
20380;DHT22;10349;48.666;8.948;2022-07-22T00:30:08;17.60;99.90
20380;DHT22;10349;48.666;8.948;2022-07-22T00:32:34;17.50;99.90
20380;DHT22;10349;48.666;8.948;2022-07-22T00:35:00;17.30;99.90
20380;DHT22;10349;48.666;8.948;2022-07-22T00:37:26;17.20;99.90
20380;DHT22;10349;48.666;8.948;2022-07-22T00:39:51;17.10;99.90
20380;DHT22;10349;48.666;8.948;2022-07-22T00:42:17;17.10;99.90
20380;DHT22;10349;48.666;8.948;2022-07-22T00:44:43;17.00;99.90
20380;DHT22;10349;48.666;8.948;2022-07-22T00:47:09;17.10;99.90
20380;DHT22;10349;48.666;8.948;2022-07-22T00:49:35;17.10;99.90
20380;DHT22;10349;48.666;8.948;2022-07-22T00:52:01;17.10;99.90
20380;DHT22;10349;48.666;8.948;2022-07-22T00:54:27;17.10;99.90
20380;DHT22;10349;48.666;8.948;2022-07-22T00:56:55;17.00;99.90
20380;DHT22;10349;48.666;8.948;2022-07-22T00:59:20;17.10;99.90
20380;DHT22;10349;48.666;8.948;2022-07-22T01:01:46;17.00;99.90
20380;DHT22;10349;48.666;8.948;2022-07-22T01:04:12;16.90;99.90
20380;DHT22;10349;48.666;8.948;2022-07-22T01:06:38;16.90;99.90
20380;DHT22;10349;48.666;8.948;2022-07-22T01:09:03;17.00;99.90
20380;DHT22;10349;48.666;8.948;2022-07-22T01:11:29;17.00;99.90
20380;DHT22;10349;48.666;8.948;2022-07-22T01:13:56;17.10;99.90
20380;DHT22;10349;48.666;8.948;2022-07-22T01:16:23;17.10;99.90
20380;DHT22;10349;48.666;8.948;2022-07-22T01:18:49;17.10;99.90
20380;DHT22;10349;48.666;8.948;2022-07-22T01:21:15;17.10;99.90
20380;DHT22;10349;48.666;8.948;2022-07-22T01:23:42;17.10;99.90
20380;DHT22;10349;48.666;8.948;2022-07-22T01:26:07;17.20;99.90
20380;DHT22;10349;48.666;8.948;2022-07-22T01:28:34;17.10;99.90
20380;DHT22;10349;48.666;8.948;2022-07-22T01:31:00;17.10;99.90
20380;DHT22;10349;48.666;8.948;2022-07-22T01:33:26;17.10;99.90
20380;DHT22;10349;48.666;8.948;2022-07-22T01:35:51;16.90;99.90
20380;DHT22;10349;48.666;8.948;2022-07-22T01:38:18;17.10;99.90
20380;DHT22;10349;48.666;8.948;2022-07-22T01:40:44;17.00;99.90
20380;DHT22;10349;48.666;8.948;2022-07-22T01:43:11;17.00;99.90
20380;DHT22;10349;48.666;8.948;2022-07-22T01:45:39;17.00;99.90
20380;DHT22;10349;48.666;8.948;2022-07-22T01:48:05;17.00;99.90
20380;DHT22;10349;48.666;8.948;2022-07-22T01:50:31;16.90;99.90
20380;DHT22;10349;48.666;8.948;2022-07-22T01:52:57;16.80;99.90
20380;DHT22;10349;48.666;8.948;2022-07-22T01:55:24;16.80;99.90
20380;DHT22;10349;48.666;8.948;2022-07-22T01:57:50;16.70;99.90
20380;DHT22;10349;48.666;8.948;2022-07-22T02:00:24;16.80;99.90
20380;DHT22;10349;48.666;8.948;2022-07-22T02:02:49;16.80;99.90
20380;DHT22;10349;48.666;8.948;2022-07-22T02:05:15;16.80;99.90
20380;DHT22;10349;48.666;8.948;2022-07-22T02:07:41;16.70;99.90
20380;DHT22;10349;48.666;8.948;2022-07-22T02:10:08;16.80;99.90
20380;DHT22;10349;48.666;8.948;2022-07-22T02:12:35;16.70;99.90
20380;DHT22;10349;48.666;8.948;2022-07-22T02:15:03;16.80;99.90
20380;DHT22;10349;48.666;8.948;2022-07-22T02:17:28;16.70;99.90
20380;DHT22;10349;48.666;8.948;2022-07-22T02:19:54;16.70;99.90
20380;DHT22;10349;48.666;8.948;2022-07-22T02:22:20;16.70;99.90
20380;DHT22;10349;48.666;8.948;2022-07-22T02:24:46;16.70;99.90
20380;DHT22;10349;48.666;8.948;2022-07-22T02:27:13;16.60;99.90
20380;DHT22;10349;48.666;8.948;2022-07-22T02:29:39;16.50;99.90
20380;DHT22;10349;48.666;8.948;2022-07-22T02:32:05;16.40;99.90
20380;DHT22;10349;48.666;8.948;2022-07-22T02:34:31;16.30;99.90
20380;DHT22;10349;48.666;8.948;2022-07-22T02:36:57;16.30;99.90
20380;DHT22;10349;48.666;8.948;2022-07-22T02:39:23;16.30;99.90
20380;DHT22;10349;48.666;8.948;2022-07-22T02:41:49;16.30;99.90
20380;DHT22;10349;48.666;8.948;2022-07-22T02:44:15;16.20;99.90
20380;DHT22;10349;48.666;8.948;2022-07-22T02:46:41;16.30;99.90
20380;DHT22;10349;48.666;8.948;2022-07-22T02:49:23;16.20;99.90
20380;DHT22;10349;48.666;8.948;2022-07-22T02:51:49;16.20;99.90
20380;DHT22;10349;48.666;8.948;2022-07-22T02:54:15;16.20;99.90
20380;DHT22;10349;48.666;8.948;2022-07-22T02:56:40;16.30;99.90
20380;DHT22;10349;48.666;8.948;2022-07-22T02:59:06;16.30;99.90
20380;DHT22;10349;48.666;8.948;2022-07-22T03:01:32;16.30;99.90
20380;DHT22;10349;48.666;8.948;2022-07-22T03:03:59;16.30;99.90
20380;DHT22;10349;48.666;8.948;2022-07-22T03:06:27;16.30;99.90
20380;DHT22;10349;48.666;8.948;2022-07-22T03:09:15;16.30;99.90
20380;DHT22;10349;48.666;8.948;2022-07-22T03:11:43;16.30;99.90
20380;DHT22;10349;48.666;8.948;2022-07-22T03:14:10;16.20;99.90
20380;DHT22;10349;48.666;8.948;2022-07-22T03:16:37;16.20;99.90
20380;DHT22;10349;48.666;8.948;2022-07-22T03:19:02;16.10;99.90
20380;DHT22;10349;48.666;8.948;2022-07-22T03:21:28;16.00;99.90
20380;DHT22;10349;48.666;8.948;2022-07-22T03:23:55;16.10;99.90
20380;DHT22;10349;48.666;8.948;2022-07-22T03:26:22;16.10;99.90
20380;DHT22;10349;48.666;8.948;2022-07-22T03:28:49;16.10;99.90
20380;DHT22;10349;48.666;8.948;2022-07-22T03:31:14;16.10;99.90
20380;DHT22;10349;48.666;8.948;2022-07-22T03:33:42;16.10;99.90
20380;DHT22;10349;48.666;8.948;2022-07-22T03:36:08;16.10;99.90
20380;DHT22;10349;48.666;8.948;2022-07-22T03:38:37;16.00;99.90
20380;DHT22;10349;48.666;8.948;2022-07-22T03:41:03;15.90;99.90
20380;DHT22;10349;48.666;8.948;2022-07-22T03:43:30;15.70;99.90
20380;DHT22;10349;48.666;8.948;2022-07-22T03:45:55;15.70;99.90
20380;DHT22;10349;48.666;8.948;2022-07-22T03:48:21;15.60;99.90
20380;DHT22;10349;48.666;8.948;2022-07-22T03:50:47;15.50;99.90
20380;DHT22;10349;48.666;8.948;2022-07-22T03:53:15;15.40;99.90
20380;DHT22;10349;48.666;8.948;2022-07-22T03:55:41;15.40;99.90
20380;DHT22;10349;48.666;8.948;2022-07-22T03:58:06;15.40;99.90
20380;DHT22;10349;48.666;8.948;2022-07-22T04:00:32;15.50;99.90
20380;DHT22;10349;48.666;8.948;2022-07-22T04:03:01;15.50;99.90
20380;DHT22;10349;48.666;8.948;2022-07-22T04:05:52;15.50;99.90
20380;DHT22;10349;48.666;8.948;2022-07-22T04:08:44;15.60;99.90
20380;DHT22;10349;48.666;8.948;2022-07-22T04:11:10;15.50;99.90
20380;DHT22;10349;48.666;8.948;2022-07-22T04:13:36;15.50;99.90
20380;DHT22;10349;48.666;8.948;2022-07-22T04:16:02;15.40;99.90
20380;DHT22;10349;48.666;8.948;2022-07-22T04:18:30;15.30;99.90
20380;DHT22;10349;48.666;8.948;2022-07-22T04:20:56;15.30;99.90
20380;DHT22;10349;48.666;8.948;2022-07-22T04:23:21;15.30;99.90
20380;DHT22;10349;48.666;8.948;2022-07-22T04:25:49;15.30;99.90
20380;DHT22;10349;48.666;8.948;2022-07-22T04:28:15;15.30;99.90
20380;DHT22;10349;48.666;8.948;2022-07-22T04:30:41;15.30;99.90
20380;DHT22;10349;48.666;8.948;2022-07-22T04:33:07;15.40;99.90
20380;DHT22;10349;48.666;8.948;2022-07-22T04:35:34;15.40;99.90
20380;DHT22;10349;48.666;8.948;2022-07-22T04:38:08;15.40;99.90
20380;DHT22;10349;48.666;8.948;2022-07-22T04:40:37;15.40;99.90
20380;DHT22;10349;48.666;8.948;2022-07-22T04:43:02;15.50;99.90
20380;DHT22;10349;48.666;8.948;2022-07-22T04:45:29;15.70;99.90
20380;DHT22;10349;48.666;8.948;2022-07-22T04:47:55;15.90;99.90
20380;DHT22;10349;48.666;8.948;2022-07-22T04:50:20;16.40;99.90
20380;DHT22;10349;48.666;8.948;2022-07-22T04:52:52;17.00;99.90
20380;DHT22;10349;48.666;8.948;2022-07-22T04:55:18;17.70;99.90
20380;DHT22;10349;48.666;8.948;2022-07-22T04:57:43;18.20;99.90
20380;DHT22;10349;48.666;8.948;2022-07-22T05:00:09;18.70;99.90
20380;DHT22;10349;48.666;8.948;2022-07-22T05:02:45;19.20;99.90
20380;DHT22;10349;48.666;8.948;2022-07-22T05:05:11;19.60;99.90
20380;DHT22;10349;48.666;8.948;2022-07-22T05:07:36;20.10;99.90
20380;DHT22;10349;48.666;8.948;2022-07-22T05:10:03;20.50;99.90
20380;DHT22;10349;48.666;8.948;2022-07-22T05:12:29;21.00;99.90
20380;DHT22;10349;48.666;8.948;2022-07-22T05:14:55;21.40;99.90
20380;DHT22;10349;48.666;8.948;2022-07-22T05:17:21;21.70;99.90
20380;DHT22;10349;48.666;8.948;2022-07-22T05:19:58;22.00;99.90
20380;DHT22;10349;48.666;8.948;2022-07-22T05:22:24;22.00;99.90
20380;DHT22;10349;48.666;8.948;2022-07-22T05:24:51;22.10;99.90
20380;DHT22;10349;48.666;8.948;2022-07-22T05:27:16;22.30;99.90
20380;DHT22;10349;48.666;8.948;2022-07-22T05:29:42;22.30;99.90
20380;DHT22;10349;48.666;8.948;2022-07-22T05:32:08;22.40;99.90
20380;DHT22;10349;48.666;8.948;2022-07-22T05:34:33;22.50;99.90
20380;DHT22;10349;48.666;8.948;2022-07-22T05:36:59;22.60;99.90
20380;DHT22;10349;48.666;8.948;2022-07-22T05:39:25;22.70;99.90
20380;DHT22;10349;48.666;8.948;2022-07-22T05:41:51;22.90;99.90
20380;DHT22;10349;48.666;8.948;2022-07-22T05:44:17;23.10;99.90
20380;DHT22;10349;48.666;8.948;2022-07-22T05:46:43;23.20;99.90
20380;DHT22;10349;48.666;8.948;2022-07-22T05:49:09;23.20;99.90
20380;DHT22;10349;48.666;8.948;2022-07-22T05:51:48;22.70;99.90
20380;DHT22;10349;48.666;8.948;2022-07-22T05:54:14;22.60;99.90
20380;DHT22;10349;48.666;8.948;2022-07-22T05:56:40;22.70;99.90
20380;DHT22;10349;48.666;8.948;2022-07-22T05:59:05;22.50;99.90
20380;DHT22;10349;48.666;8.948;2022-07-22T06:01:31;22.20;99.90
20380;DHT22;10349;48.666;8.948;2022-07-22T06:04:02;22.00;99.90
20380;DHT22;10349;48.666;8.948;2022-07-22T06:06:29;21.80;99.90
20380;DHT22;10349;48.666;8.948;2022-07-22T06:08:55;21.80;99.90
20380;DHT22;10349;48.666;8.948;2022-07-22T06:11:21;21.60;99.90
20380;DHT22;10349;48.666;8.948;2022-07-22T06:13:47;21.70;99.90
20380;DHT22;10349;48.666;8.948;2022-07-22T06:16:13;21.70;99.90
20380;DHT22;10349;48.666;8.948;2022-07-22T06:18:40;21.50;99.90
20380;DHT22;10349;48.666;8.948;2022-07-22T06:21:06;21.10;99.90
20380;DHT22;10349;48.666;8.948;2022-07-22T06:23:34;21.00;99.90
20380;DHT22;10349;48.666;8.948;2022-07-22T06:26:00;20.90;99.90
20380;DHT22;10349;48.666;8.948;2022-07-22T06:28:34;20.80;99.90
20380;DHT22;10349;48.666;8.948;2022-07-22T06:30:59;20.70;99.90
20380;DHT22;10349;48.666;8.948;2022-07-22T06:33:26;20.60;99.90
20380;DHT22;10349;48.666;8.948;2022-07-22T06:35:52;20.60;99.90
20380;DHT22;10349;48.666;8.948;2022-07-22T06:38:18;20.50;99.90
20380;DHT22;10349;48.666;8.948;2022-07-22T06:41:15;20.60;99.90
20380;DHT22;10349;48.666;8.948;2022-07-22T06:44:05;20.70;99.90
20380;DHT22;10349;48.666;8.948;2022-07-22T06:46:43;20.70;99.90
20380;DHT22;10349;48.666;8.948;2022-07-22T06:49:10;20.70;99.90
20380;DHT22;10349;48.666;8.948;2022-07-22T06:51:36;20.70;99.90
20380;DHT22;10349;48.666;8.948;2022-07-22T06:54:01;20.70;99.90
20380;DHT22;10349;48.666;8.948;2022-07-22T06:56:27;20.80;99.90
20380;DHT22;10349;48.666;8.948;2022-07-22T06:58:53;20.80;99.90
20380;DHT22;10349;48.666;8.948;2022-07-22T07:01:19;20.90;99.90
20380;DHT22;10349;48.666;8.948;2022-07-22T07:04:03;20.90;99.90
20380;DHT22;10349;48.666;8.948;2022-07-22T07:06:28;20.90;99.90
20380;DHT22;10349;48.666;8.948;2022-07-22T07:09:03;20.90;99.90
20380;DHT22;10349;48.666;8.948;2022-07-22T07:11:30;20.80;99.90
20380;DHT22;10349;48.666;8.948;2022-07-22T07:13:56;20.80;99.90
20380;DHT22;10349;48.666;8.948;2022-07-22T07:16:21;20.90;99.90
20380;DHT22;10349;48.666;8.948;2022-07-22T07:18:47;21.00;99.90
20380;DHT22;10349;48.666;8.948;2022-07-22T07:21:13;21.10;99.90
20380;DHT22;10349;48.666;8.948;2022-07-22T07:23:39;21.20;99.90
20380;DHT22;10349;48.666;8.948;2022-07-22T07:26:06;21.40;99.90
20380;DHT22;10349;48.666;8.948;2022-07-22T07:28:31;21.50;99.90
20380;DHT22;10349;48.666;8.948;2022-07-22T07:31:23;21.60;99.90
20380;DHT22;10349;48.666;8.948;2022-07-22T07:33:51;21.80;99.90
20380;DHT22;10349;48.666;8.948;2022-07-22T07:36:17;22.00;99.90
20380;DHT22;10349;48.666;8.948;2022-07-22T07:38:48;22.10;99.90
20380;DHT22;10349;48.666;8.948;2022-07-22T07:41:16;22.20;99.90
20380;DHT22;10349;48.666;8.948;2022-07-22T07:43:42;22.30;99.90
20380;DHT22;10349;48.666;8.948;2022-07-22T07:46:09;22.40;99.90
20380;DHT22;10349;48.666;8.948;2022-07-22T07:48:34;22.50;99.90
20380;DHT22;10349;48.666;8.948;2022-07-22T07:51:00;22.50;99.90
20380;DHT22;10349;48.666;8.948;2022-07-22T07:53:26;22.60;99.90
20380;DHT22;10349;48.666;8.948;2022-07-22T07:55:53;22.70;99.90
20380;DHT22;10349;48.666;8.948;2022-07-22T07:58:19;22.80;99.90
20380;DHT22;10349;48.666;8.948;2022-07-22T08:00:45;22.90;99.90
20380;DHT22;10349;48.666;8.948;2022-07-22T08:03:11;23.00;99.90
20380;DHT22;10349;48.666;8.948;2022-07-22T08:05:37;23.10;99.90
20380;DHT22;10349;48.666;8.948;2022-07-22T08:08:09;23.10;99.90
20380;DHT22;10349;48.666;8.948;2022-07-22T08:10:34;23.20;99.90
20380;DHT22;10349;48.666;8.948;2022-07-22T08:13:00;23.30;99.90
20380;DHT22;10349;48.666;8.948;2022-07-22T08:15:52;23.30;99.90
20380;DHT22;10349;48.666;8.948;2022-07-22T08:18:21;23.40;99.90
20380;DHT22;10349;48.666;8.948;2022-07-22T08:20:47;23.40;99.90
20380;DHT22;10349;48.666;8.948;2022-07-22T08:23:15;23.50;99.90
20380;DHT22;10349;48.666;8.948;2022-07-22T08:25:43;23.50;99.90
20380;DHT22;10349;48.666;8.948;2022-07-22T08:28:09;23.70;99.90
20380;DHT22;10349;48.666;8.948;2022-07-22T08:30:35;23.80;99.90
20380;DHT22;10349;48.666;8.948;2022-07-22T08:33:02;23.80;99.90
20380;DHT22;10349;48.666;8.948;2022-07-22T08:35:28;23.90;99.90
20380;DHT22;10349;48.666;8.948;2022-07-22T08:37:54;24.00;99.90
20380;DHT22;10349;48.666;8.948;2022-07-22T08:40:21;24.10;99.90
20380;DHT22;10349;48.666;8.948;2022-07-22T08:42:48;24.10;99.90
20380;DHT22;10349;48.666;8.948;2022-07-22T08:45:15;24.30;99.90
20380;DHT22;10349;48.666;8.948;2022-07-22T08:47:47;24.40;99.90
20380;DHT22;10349;48.666;8.948;2022-07-22T08:50:25;24.50;99.90
20380;DHT22;10349;48.666;8.948;2022-07-22T08:52:56;24.70;99.90
20380;DHT22;10349;48.666;8.948;2022-07-22T08:55:23;24.70;99.90
20380;DHT22;10349;48.666;8.948;2022-07-22T08:57:50;24.80;99.90
20380;DHT22;10349;48.666;8.948;2022-07-22T09:00:19;24.90;99.90
20380;DHT22;10349;48.666;8.948;2022-07-22T09:02:45;24.90;99.90
20380;DHT22;10349;48.666;8.948;2022-07-22T09:05:15;24.90;99.90
20380;DHT22;10349;48.666;8.948;2022-07-22T09:07:42;24.90;99.90
20380;DHT22;10349;48.666;8.948;2022-07-22T09:10:18;24.80;99.90
20380;DHT22;10349;48.666;8.948;2022-07-22T09:13:15;24.90;99.90
20380;DHT22;10349;48.666;8.948;2022-07-22T09:15:54;25.00;99.90
20380;DHT22;10349;48.666;8.948;2022-07-22T09:18:53;25.10;99.90
20380;DHT22;10349;48.666;8.948;2022-07-22T09:21:29;25.30;99.90
20380;DHT22;10349;48.666;8.948;2022-07-22T09:24:26;25.40;99.90
20380;DHT22;10349;48.666;8.948;2022-07-22T09:26:55;25.60;99.90
20380;DHT22;10349;48.666;8.948;2022-07-22T09:29:34;25.70;99.90
20380;DHT22;10349;48.666;8.948;2022-07-22T09:32:26;25.80;99.90
20380;DHT22;10349;48.666;8.948;2022-07-22T09:35:10;25.90;99.90
20380;DHT22;10349;48.666;8.948;2022-07-22T09:37:53;26.00;99.90
20380;DHT22;10349;48.666;8.948;2022-07-22T09:40:32;26.10;99.90
20380;DHT22;10349;48.666;8.948;2022-07-22T09:43:00;26.10;99.90
20380;DHT22;10349;48.666;8.948;2022-07-22T09:45:28;26.20;99.90
20380;DHT22;10349;48.666;8.948;2022-07-22T09:47:55;26.30;99.90
20380;DHT22;10349;48.666;8.948;2022-07-22T09:50:34;26.30;99.90
20380;DHT22;10349;48.666;8.948;2022-07-22T09:53:20;26.40;99.90
20380;DHT22;10349;48.666;8.948;2022-07-22T09:55:55;26.50;99.90
20380;DHT22;10349;48.666;8.948;2022-07-22T09:58:22;26.50;99.90
20380;DHT22;10349;48.666;8.948;2022-07-22T10:00:49;26.50;99.90
20380;DHT22;10349;48.666;8.948;2022-07-22T10:03:29;26.70;99.90
20380;DHT22;10349;48.666;8.948;2022-07-22T10:05:57;26.90;99.90
20380;DHT22;10349;48.666;8.948;2022-07-22T10:08:27;27.00;99.90
20380;DHT22;10349;48.666;8.948;2022-07-22T10:10:59;27.00;99.90
20380;DHT22;10349;48.666;8.948;2022-07-22T10:13:26;27.20;99.90
20380;DHT22;10349;48.666;8.948;2022-07-22T10:15:52;27.30;99.90
20380;DHT22;10349;48.666;8.948;2022-07-22T10:18:18;27.40;99.90
20380;DHT22;10349;48.666;8.948;2022-07-22T10:20:47;27.60;99.90
20380;DHT22;10349;48.666;8.948;2022-07-22T10:23:13;27.70;99.90
20380;DHT22;10349;48.666;8.948;2022-07-22T10:25:52;28.00;99.90
20380;DHT22;10349;48.666;8.948;2022-07-22T10:28:30;28.20;99.90
20380;DHT22;10349;48.666;8.948;2022-07-22T10:33:49;28.40;99.90
20380;DHT22;10349;48.666;8.948;2022-07-22T10:36:33;28.40;99.90
20380;DHT22;10349;48.666;8.948;2022-07-22T10:39:13;28.60;99.90
20380;DHT22;10349;48.666;8.948;2022-07-22T10:41:41;28.70;99.90
20380;DHT22;10349;48.666;8.948;2022-07-22T10:44:08;28.90;99.90
20380;DHT22;10349;48.666;8.948;2022-07-22T10:46:55;29.20;99.90
20380;DHT22;10349;48.666;8.948;2022-07-22T10:49:24;29.40;99.90
20380;DHT22;10349;48.666;8.948;2022-07-22T10:54:32;29.40;99.90
20380;DHT22;10349;48.666;8.948;2022-07-22T10:56:59;29.50;99.90
20380;DHT22;10349;48.666;8.948;2022-07-22T10:59:25;29.50;99.90
20380;DHT22;10349;48.666;8.948;2022-07-22T11:01:51;29.60;99.90
20380;DHT22;10349;48.666;8.948;2022-07-22T11:04:24;29.70;99.90
20380;DHT22;10349;48.666;8.948;2022-07-22T11:06:56;29.90;99.90
20380;DHT22;10349;48.666;8.948;2022-07-22T11:09:30;30.00;99.90
20380;DHT22;10349;48.666;8.948;2022-07-22T11:11:56;30.20;99.90
20380;DHT22;10349;48.666;8.948;2022-07-22T11:19:26;30.50;99.90
20380;DHT22;10349;48.666;8.948;2022-07-22T11:22:12;30.50;99.90
20380;DHT22;10349;48.666;8.948;2022-07-22T11:24:40;30.60;99.90
20380;DHT22;10349;48.666;8.948;2022-07-22T11:27:14;30.70;99.90
20380;DHT22;10349;48.666;8.948;2022-07-22T11:29:40;30.70;99.90
20380;DHT22;10349;48.666;8.948;2022-07-22T11:32:11;30.80;99.90
20380;DHT22;10349;48.666;8.948;2022-07-22T11:34:40;31.00;99.90
20380;DHT22;10349;48.666;8.948;2022-07-22T11:37:15;31.10;99.90
20380;DHT22;10349;48.666;8.948;2022-07-22T11:39:42;31.10;99.90
20380;DHT22;10349;48.666;8.948;2022-07-22T11:42:07;31.00;99.90
20380;DHT22;10349;48.666;8.948;2022-07-22T11:44:35;30.80;99.90
20380;DHT22;10349;48.666;8.948;2022-07-22T11:47:03;30.60;99.90
20380;DHT22;10349;48.666;8.948;2022-07-22T11:49:32;30.50;99.90
20380;DHT22;10349;48.666;8.948;2022-07-22T11:52:00;30.10;99.90
20380;DHT22;10349;48.666;8.948;2022-07-22T11:54:26;29.90;99.90
20380;DHT22;10349;48.666;8.948;2022-07-22T11:56:52;29.70;99.90
20380;DHT22;10349;48.666;8.948;2022-07-22T11:59:19;29.70;99.90
20380;DHT22;10349;48.666;8.948;2022-07-22T12:01:46;29.80;99.90
20380;DHT22;10349;48.666;8.948;2022-07-22T12:04:18;30.00;99.90
20380;DHT22;10349;48.666;8.948;2022-07-22T12:06:45;30.30;99.90
20380;DHT22;10349;48.666;8.948;2022-07-22T12:09:12;30.40;99.90
20380;DHT22;10349;48.666;8.948;2022-07-22T12:11:40;30.10;99.90
20380;DHT22;10349;48.666;8.948;2022-07-22T12:14:14;30.00;99.90
20380;DHT22;10349;48.666;8.948;2022-07-22T12:16:42;30.00;99.90
20380;DHT22;10349;48.666;8.948;2022-07-22T12:19:10;30.20;99.90
20380;DHT22;10349;48.666;8.948;2022-07-22T12:22:03;30.20;99.90
20380;DHT22;10349;48.666;8.948;2022-07-22T12:24:30;30.10;99.90
20380;DHT22;10349;48.666;8.948;2022-07-22T12:27:02;30.10;99.90
20380;DHT22;10349;48.666;8.948;2022-07-22T12:32:07;30.20;99.90
20380;DHT22;10349;48.666;8.948;2022-07-22T12:34:38;30.20;99.90
20380;DHT22;10349;48.666;8.948;2022-07-22T12:39:58;30.00;99.90
20380;DHT22;10349;48.666;8.948;2022-07-22T12:42:26;30.10;99.90
20380;DHT22;10349;48.666;8.948;2022-07-22T12:47:46;30.50;99.90
20380;DHT22;10349;48.666;8.948;2022-07-22T12:50:31;30.50;99.90
20380;DHT22;10349;48.666;8.948;2022-07-22T12:53:08;30.70;99.90
20380;DHT22;10349;48.666;8.948;2022-07-22T12:55:36;30.80;99.90
20380;DHT22;10349;48.666;8.948;2022-07-22T12:58:06;30.80;99.90
20380;DHT22;10349;48.666;8.948;2022-07-22T13:00:38;31.00;99.90
20380;DHT22;10349;48.666;8.948;2022-07-22T13:03:04;31.10;99.90
20380;DHT22;10349;48.666;8.948;2022-07-22T13:05:31;31.20;99.90
20380;DHT22;10349;48.666;8.948;2022-07-22T13:07:57;31.30;99.90
20380;DHT22;10349;48.666;8.948;2022-07-22T13:10:25;31.40;99.90
20380;DHT22;10349;48.666;8.948;2022-07-22T13:12:52;31.50;99.90
20380;DHT22;10349;48.666;8.948;2022-07-22T13:15:19;31.50;99.90
20380;DHT22;10349;48.666;8.948;2022-07-22T13:17:45;31.50;99.90
20380;DHT22;10349;48.666;8.948;2022-07-22T13:20:13;31.50;99.90
20380;DHT22;10349;48.666;8.948;2022-07-22T13:22:39;31.70;99.90
20380;DHT22;10349;48.666;8.948;2022-07-22T13:25:06;31.70;99.90
20380;DHT22;10349;48.666;8.948;2022-07-22T13:27:32;31.40;99.90
20380;DHT22;10349;48.666;8.948;2022-07-22T13:29:57;31.50;99.90
20380;DHT22;10349;48.666;8.948;2022-07-22T13:32:23;31.70;99.90
20380;DHT22;10349;48.666;8.948;2022-07-22T13:34:49;32.00;99.90
20380;DHT22;10349;48.666;8.948;2022-07-22T13:37:15;31.80;99.90
20380;DHT22;10349;48.666;8.948;2022-07-22T13:39:41;31.70;99.90
20380;DHT22;10349;48.666;8.948;2022-07-22T13:42:08;32.00;99.90
20380;DHT22;10349;48.666;8.948;2022-07-22T13:44:34;32.20;99.90
20380;DHT22;10349;48.666;8.948;2022-07-22T13:47:01;32.30;99.90
20380;DHT22;10349;48.666;8.948;2022-07-22T13:49:26;32.20;99.90
20380;DHT22;10349;48.666;8.948;2022-07-22T13:51:52;32.30;99.90
20380;DHT22;10349;48.666;8.948;2022-07-22T13:54:19;32.40;99.90
20380;DHT22;10349;48.666;8.948;2022-07-22T13:56:46;32.50;99.90
20380;DHT22;10349;48.666;8.948;2022-07-22T13:59:15;32.40;99.90
20380;DHT22;10349;48.666;8.948;2022-07-22T14:01:41;32.30;99.90
20380;DHT22;10349;48.666;8.948;2022-07-22T14:04:07;31.70;99.90
20380;DHT22;10349;48.666;8.948;2022-07-22T14:06:33;31.80;99.90
20380;DHT22;10349;48.666;8.948;2022-07-22T14:08:59;32.10;99.90
20380;DHT22;10349;48.666;8.948;2022-07-22T14:11:25;32.40;99.90
20380;DHT22;10349;48.666;8.948;2022-07-22T14:13:51;32.40;99.90
20380;DHT22;10349;48.666;8.948;2022-07-22T14:16:16;32.40;99.90
20380;DHT22;10349;48.666;8.948;2022-07-22T14:19:11;32.40;99.90
20380;DHT22;10349;48.666;8.948;2022-07-22T14:21:39;32.80;99.90
20380;DHT22;10349;48.666;8.948;2022-07-22T14:24:07;33.20;99.90
20380;DHT22;10349;48.666;8.948;2022-07-22T14:26:34;33.50;99.90
20380;DHT22;10349;48.666;8.948;2022-07-22T14:29:00;33.70;99.90
20380;DHT22;10349;48.666;8.948;2022-07-22T14:31:26;33.70;99.90
20380;DHT22;10349;48.666;8.948;2022-07-22T14:33:53;33.40;99.90
20380;DHT22;10349;48.666;8.948;2022-07-22T14:36:19;33.50;99.90
20380;DHT22;10349;48.666;8.948;2022-07-22T14:38:45;33.60;99.90
20380;DHT22;10349;48.666;8.948;2022-07-22T14:41:10;33.80;99.90
20380;DHT22;10349;48.666;8.948;2022-07-22T14:43:37;33.80;99.90
20380;DHT22;10349;48.666;8.948;2022-07-22T14:46:03;34.00;99.90
20380;DHT22;10349;48.666;8.948;2022-07-22T14:48:30;34.00;99.90
20380;DHT22;10349;48.666;8.948;2022-07-22T14:50:56;33.90;99.90
20380;DHT22;10349;48.666;8.948;2022-07-22T14:53:22;33.90;99.90
20380;DHT22;10349;48.666;8.948;2022-07-22T14:55:48;34.20;99.90
20380;DHT22;10349;48.666;8.948;2022-07-22T14:58:13;34.50;99.90
20380;DHT22;10349;48.666;8.948;2022-07-22T15:00:39;34.80;99.90
20380;DHT22;10349;48.666;8.948;2022-07-22T15:03:05;34.80;99.90
20380;DHT22;10349;48.666;8.948;2022-07-22T15:05:31;34.90;99.90
20380;DHT22;10349;48.666;8.948;2022-07-22T15:07:56;35.00;99.90
20380;DHT22;10349;48.666;8.948;2022-07-22T15:10:22;34.90;99.90
20380;DHT22;10349;48.666;8.948;2022-07-22T15:12:48;34.80;99.90
20380;DHT22;10349;48.666;8.948;2022-07-22T15:15:13;34.80;99.90
20380;DHT22;10349;48.666;8.948;2022-07-22T15:17:39;35.10;99.90
20380;DHT22;10349;48.666;8.948;2022-07-22T15:20:06;35.30;99.90
20380;DHT22;10349;48.666;8.948;2022-07-22T15:22:32;35.50;99.90
20380;DHT22;10349;48.666;8.948;2022-07-22T15:24:59;35.50;99.90
20380;DHT22;10349;48.666;8.948;2022-07-22T15:27:25;35.50;99.90
20380;DHT22;10349;48.666;8.948;2022-07-22T15:29:51;35.60;99.90
20380;DHT22;10349;48.666;8.948;2022-07-22T15:32:17;35.40;99.90
20380;DHT22;10349;48.666;8.948;2022-07-22T15:34:43;35.20;99.20
20380;DHT22;10349;48.666;8.948;2022-07-22T15:37:09;34.60;99.70
20380;DHT22;10349;48.666;8.948;2022-07-22T15:39:35;34.10;99.90
20380;DHT22;10349;48.666;8.948;2022-07-22T15:42:01;34.00;99.90
20380;DHT22;10349;48.666;8.948;2022-07-22T15:44:26;33.90;99.90
20380;DHT22;10349;48.666;8.948;2022-07-22T15:46:52;34.00;99.90
20380;DHT22;10349;48.666;8.948;2022-07-22T15:49:20;33.70;99.90
20380;DHT22;10349;48.666;8.948;2022-07-22T15:51:46;33.40;99.90
20380;DHT22;10349;48.666;8.948;2022-07-22T15:54:12;33.40;99.90
20380;DHT22;10349;48.666;8.948;2022-07-22T15:56:38;33.40;99.90